Terminal Aerodrome Forecast
Issued by NWS Hastings, NE

Home | Current Version | Previous Version | Text Only | Print | Product List | Glossary On
Versions: 1 2 3 4 5 6 7 8 9 10 11 12 13 14 15 16 17 18 19 20 21 22 23 24 25 26 27 28 29 30 31 32 33 34 35 36 37 38 39 40 41 42
460
FTUS43 KGID 131120
TAFGRI
TAF
KGRI 131120Z 1312/1412 13009KT P6SM OVC040
     FM131800 16013KT P6SM OVC025
     FM132300 15012KT P6SM OVC045
     FM140600 18013KT P6SM SCT140
     FM140800 23013KT P6SM SCT150=

USA.gov is the U.S. government's official web portal to all federal, state and local government web resources and services.